createdAt,value
2022-09-24T00:01:36.041Z,1.58
2022-09-24T00:04:06.166Z,1.25
2022-09-24T00:06:51.428Z,1.45
2022-09-24T00:09:21.989Z,1.15
2022-09-24T00:11:50.033Z,1.55
2022-09-24T00:14:17.406Z,1.52
2022-09-24T00:16:45.743Z,1.15
2022-09-24T00:19:14.017Z,1.30
2022-09-24T00:21:41.942Z,1.52
2022-09-24T00:24:36.115Z,0.88
2022-09-24T00:27:05.863Z,0.45
2022-09-24T00:29:35.697Z,1.33
2022-09-24T00:32:05.915Z,1.58
2022-09-24T00:34:33.454Z,1.20
2022-09-24T00:37:00.688Z,1.17
2022-09-24T00:39:28.328Z,0.70
2022-09-24T00:41:55.725Z,0.93
2022-09-24T00:44:41.224Z,0.50
2022-09-24T00:47:19.215Z,1.38
2022-09-24T00:49:49.673Z,1.92
2022-09-24T00:52:19.023Z,0.68
2022-09-24T00:54:47.092Z,1.55
2022-09-24T00:59:43.518Z,1.00
2022-09-24T01:02:10.986Z,1.25
2022-09-24T01:04:38.242Z,1.42
2022-09-24T01:07:05.481Z,1.10
2022-09-24T01:09:32.876Z,0.70
2022-09-24T01:12:28.352Z,0.95
2022-09-24T01:15:02.919Z,1.35
2022-09-24T01:17:50.601Z,1.77
2022-09-24T01:23:05.854Z,1.10
2022-09-24T01:25:46.009Z,0.60
2022-09-24T01:28:35.886Z,1.40
2022-09-24T01:31:16.961Z,1.42
2022-09-24T01:33:49.626Z,1.00
2022-09-24T01:36:18.275Z,0.90
2022-09-24T01:38:49.675Z,0.77
2022-09-24T01:41:18.633Z,1.08
2022-09-24T01:43:46.146Z,1.17
2022-09-24T01:46:16.520Z,1.40
2022-09-24T01:48:43.920Z,0.90
2022-09-24T01:51:33.876Z,0.80
2022-09-24T01:54:05.652Z,1.23
2022-09-24T01:56:47.604Z,0.50
2022-09-24T01:59:33.076Z,1.00
2022-09-24T02:02:28.841Z,1.02
2022-09-24T02:05:02.177Z,1.85
2022-09-24T02:08:05.651Z,1.38
2022-09-24T02:10:41.304Z,0.98
2022-09-24T02:13:13.564Z,0.98
2022-09-24T02:15:45.728Z,1.70
2022-09-24T02:18:17.655Z,0.80
2022-09-24T02:20:45.453Z,0.85
2022-09-24T02:23:15.930Z,1.17
2022-09-24T02:25:58.311Z,0.75
2022-09-24T02:28:26.775Z,0.88
2022-09-24T02:31:00.748Z,1.20
2022-09-24T02:33:51.070Z,0.85
2022-09-24T02:36:18.678Z,1.25
2022-09-24T02:38:46.858Z,0.65
2022-09-24T02:41:14.792Z,1.10
2022-09-24T02:46:10.193Z,0.63
2022-09-24T02:48:37.368Z,0.90
2022-09-24T02:51:05.627Z,0.93
2022-09-24T02:53:34.631Z,0.50
2022-09-24T02:56:02.128Z,2.95
2022-09-24T02:58:30.088Z,1.60
2022-09-24T03:03:24.827Z,0.75
2022-09-24T03:05:54.707Z,1.15
2022-09-24T03:08:22.835Z,0.45
2022-09-24T03:10:51.164Z,0.60
2022-09-24T03:13:19.045Z,1.05
2022-09-24T03:18:14.405Z,1.27
2022-09-24T03:20:43.134Z,1.48
2022-09-24T03:23:10.440Z,0.30
2022-09-24T03:25:37.512Z,0.90
2022-09-24T03:28:04.815Z,0.20
2022-09-24T03:30:50.590Z,0.73
2022-09-24T03:33:17.696Z,0.77
2022-09-24T03:35:44.813Z,0.35
2022-09-24T03:38:11.913Z,0.67
2022-09-24T03:40:39.208Z,2.40
2022-09-24T03:43:06.364Z,0.55
2022-09-24T03:45:33.421Z,0.30
2022-09-24T03:48:00.652Z,0.80
2022-09-24T03:50:27.736Z,2.00
2022-09-24T03:52:55.132Z,0.63
2022-09-24T03:55:22.285Z,0.68
2022-09-24T03:57:49.390Z,1.30
2022-09-24T04:00:16.952Z,1.70
2022-09-24T04:02:45.032Z,0.88
2022-09-24T04:05:12.320Z,1.35
2022-09-24T04:07:39.878Z,1.48
2022-09-24T04:10:08.925Z,1.73
2022-09-24T04:12:36.203Z,0.93
2022-09-24T04:15:04.086Z,0.47
2022-09-24T04:17:31.511Z,2.05
2022-09-24T04:19:58.777Z,0.40
2022-09-24T04:22:26.246Z,1.63
2022-09-24T04:24:53.941Z,0.95
2022-09-24T04:27:21.829Z,0.75
2022-09-24T04:29:48.891Z,1.30
2022-09-24T04:32:16.049Z,1.03
2022-09-24T04:34:43.114Z,1.15
2022-09-24T04:37:10.271Z,0.93
2022-09-24T04:39:37.510Z,0.63
2022-09-24T04:42:04.818Z,1.60
2022-09-24T04:44:32.064Z,1.20
2022-09-24T04:47:03.003Z,0.88
2022-09-24T04:49:30.338Z,0.70
2022-09-24T04:51:58.352Z,0.93
2022-09-24T04:54:25.656Z,0.85
2022-09-24T04:56:52.940Z,0.80
2022-09-24T04:59:20.072Z,1.98
2022-09-24T05:01:47.371Z,1.90
2022-09-24T05:04:14.588Z,0.38
2022-09-24T05:06:41.810Z,1.05
2022-09-24T05:09:12.638Z,0.57
2022-09-24T05:11:40.011Z,0.70
2022-09-24T05:14:08.501Z,1.38
2022-09-24T05:16:35.810Z,1.10
2022-09-24T05:19:04.936Z,1.95
2022-09-24T05:21:32.302Z,0.63
2022-09-24T05:23:59.505Z,0.45
2022-09-24T05:26:44.870Z,1.20
2022-09-24T05:29:12.164Z,0.70
2022-09-24T05:31:39.321Z,1.23
2022-09-24T05:34:06.760Z,1.88
2022-09-24T05:36:33.999Z,1.23
2022-09-24T05:39:01.427Z,0.40
2022-09-24T05:41:28.561Z,0.70
2022-09-24T05:43:59.626Z,1.00
2022-09-24T05:46:27.053Z,1.20
2022-09-24T05:48:56.006Z,1.58
2022-09-24T05:51:23.111Z,1.42
2022-09-24T05:53:50.507Z,0.95
2022-09-24T05:56:18.538Z,0.70
2022-09-24T06:01:15.392Z,0.80
2022-09-24T06:03:42.881Z,0.80
2022-09-24T06:06:10.341Z,0.40
2022-09-24T06:08:37.685Z,0.70
2022-09-24T06:11:08.570Z,1.90
2022-09-24T06:13:35.973Z,1.58
2022-09-24T06:16:08.914Z,0.70
2022-09-24T06:18:40.011Z,0.93
2022-09-24T06:21:11.525Z,0.73
2022-09-24T06:23:39.168Z,0.90
2022-09-24T06:26:07.876Z,0.88
2022-09-24T06:28:35.576Z,1.27
2022-09-24T06:31:03.648Z,0.88
2022-09-24T06:38:29.795Z,0.68
2022-09-24T06:41:01.797Z,1.27
2022-09-24T06:43:29.661Z,1.92
2022-09-24T06:45:58.029Z,0.70
2022-09-24T06:48:26.493Z,0.70
2022-09-24T06:50:54.748Z,0.95
2022-09-24T06:53:22.032Z,1.42
2022-09-24T06:55:49.415Z,1.08
2022-09-24T06:58:22.182Z,1.13
2022-09-24T07:01:02.284Z,1.17
2022-09-24T07:03:31.819Z,0.75
2022-09-24T07:06:04.902Z,1.38
2022-09-24T07:08:32.674Z,1.63
2022-09-24T07:11:00.731Z,0.40
2022-09-24T07:13:28.000Z,1.67
2022-09-24T07:15:55.256Z,1.80
2022-09-24T07:18:23.096Z,1.55
2022-09-24T07:20:56.810Z,1.52
2022-09-24T07:23:24.532Z,1.45
2022-09-24T07:25:56.244Z,1.42
2022-09-24T07:28:23.535Z,0.85
2022-09-24T07:30:57.878Z,0.45
2022-09-24T07:33:25.161Z,1.75
2022-09-24T07:35:52.357Z,1.15
2022-09-24T07:38:19.790Z,1.70
2022-09-24T07:40:47.170Z,0.65
2022-09-24T07:43:14.776Z,0.98
2022-09-24T07:45:42.754Z,0.85
2022-09-24T07:48:11.222Z,1.55
2022-09-24T07:50:40.524Z,2.28
2022-09-24T07:53:11.872Z,1.88
2022-09-24T07:55:41.056Z,1.27
2022-09-24T07:58:12.919Z,1.88
2022-09-24T08:00:40.495Z,1.40
2022-09-24T08:03:07.820Z,1.35
2022-09-24T08:05:34.913Z,1.48
2022-09-24T08:08:02.285Z,1.03
2022-09-24T08:10:29.585Z,1.08
2022-09-24T08:12:59.345Z,2.33
2022-09-24T08:15:26.729Z,0.80
2022-09-24T08:17:53.829Z,2.05
2022-09-24T08:20:23.444Z,1.57
2022-09-24T08:22:50.643Z,1.20
2022-09-24T08:25:17.791Z,1.13
2022-09-24T08:27:44.945Z,0.82
2022-09-24T08:30:12.629Z,2.25
2022-09-24T08:32:39.928Z,1.27
2022-09-24T08:35:08.275Z,1.35
2022-09-24T08:37:37.167Z,0.73
2022-09-24T08:40:04.670Z,1.02
2022-09-24T08:42:55.720Z,0.52
2022-09-24T08:45:41.221Z,1.35
2022-09-24T08:48:19.380Z,0.77
2022-09-24T08:50:53.409Z,0.70
2022-09-24T08:53:28.149Z,1.10
2022-09-24T08:56:01.962Z,2.22
2022-09-24T08:58:44.307Z,0.70
2022-09-24T09:01:11.964Z,0.50
2022-09-24T09:03:39.076Z,0.93
2022-09-24T09:06:41.817Z,0.88
2022-09-24T09:09:17.562Z,0.75
2022-09-24T09:11:49.120Z,1.40
2022-09-24T09:14:31.338Z,0.70
2022-09-24T09:17:07.116Z,1.15
2022-09-24T09:19:37.084Z,1.30
2022-09-24T09:22:16.541Z,1.13
2022-09-24T09:24:50.328Z,0.80
2022-09-24T09:27:19.632Z,0.85
2022-09-24T09:29:51.020Z,1.05
2022-09-24T09:32:49.992Z,0.70
2022-09-24T09:35:33.250Z,0.50
2022-09-24T09:38:19.635Z,1.20
2022-09-24T09:41:11.585Z,1.30
2022-09-24T09:43:41.870Z,1.02
2022-09-24T09:46:18.961Z,1.23
2022-09-24T09:48:52.259Z,0.88
2022-09-24T09:51:23.227Z,0.63
2022-09-24T09:54:02.376Z,0.80
2022-09-24T09:56:37.034Z,1.05
2022-09-24T09:59:18.804Z,0.90
2022-09-24T10:01:49.576Z,1.42
2022-09-24T10:04:43.530Z,1.00
2022-09-24T10:07:17.582Z,0.80
2022-09-24T10:09:46.851Z,0.80
2022-09-24T10:12:22.463Z,0.30
2022-09-24T10:15:05.378Z,0.47
2022-09-24T10:17:58.170Z,1.80
2022-09-24T10:20:33.801Z,1.05
2022-09-24T10:23:07.214Z,1.92
2022-09-24T10:25:37.842Z,0.82
2022-09-24T10:28:42.653Z,0.55
2022-09-24T10:31:30.449Z,1.83
2022-09-24T10:33:59.855Z,0.55
2022-09-24T10:36:30.039Z,0.77
2022-09-24T10:39:04.765Z,1.30
2022-09-24T10:41:32.478Z,0.63
2022-09-24T10:44:11.800Z,0.70
2022-09-24T10:47:00.796Z,0.88
2022-09-24T10:49:55.230Z,1.30
2022-09-24T10:52:36.044Z,1.17
2022-09-24T10:55:25.013Z,0.75
2022-09-24T10:57:58.557Z,1.30
2022-09-24T11:00:49.515Z,0.50
2022-09-24T11:03:37.154Z,1.10
2022-09-24T11:09:17.423Z,1.15
2022-09-24T11:11:50.572Z,1.17
2022-09-24T11:14:23.557Z,2.85
2022-09-24T11:17:00.889Z,0.50
2022-09-24T11:19:31.865Z,0.77
2022-09-24T11:22:15.737Z,0.52
2022-09-24T11:25:09.102Z,0.50
2022-09-24T11:27:50.485Z,0.32
2022-09-24T11:30:32.080Z,0.40
2022-09-24T11:33:47.608Z,0.63
2022-09-24T11:36:33.453Z,0.90
2022-09-24T11:39:22.407Z,0.73
2022-09-24T11:42:08.195Z,0.55
2022-09-24T11:45:05.759Z,0.47
2022-09-24T11:47:33.985Z,0.60
2022-09-24T11:50:11.250Z,0.75
2022-09-24T11:52:45.568Z,1.00
2022-09-24T11:55:18.778Z,0.77
2022-09-24T11:57:57.064Z,0.35
2022-09-24T12:00:32.486Z,0.80
2022-09-24T12:03:11.094Z,0.47
2022-09-24T12:05:46.727Z,0.50
2022-09-24T12:08:27.751Z,0.93
2022-09-24T12:11:06.797Z,0.55
2022-09-24T12:13:42.725Z,0.93
2022-09-24T12:16:17.006Z,0.75
2022-09-24T12:18:50.736Z,0.32
2022-09-24T12:21:33.218Z,1.00
2022-09-24T12:24:07.355Z,0.60
2022-09-24T12:26:37.746Z,0.40
2022-09-24T12:29:51.199Z,0.65
2022-09-24T12:32:54.322Z,0.70
2022-09-24T12:35:49.808Z,0.85
2022-09-24T12:38:29.794Z,0.82
2022-09-24T12:41:25.234Z,0.50
2022-09-24T12:44:22.997Z,0.75
2022-09-24T12:46:59.410Z,0.65
2022-09-24T12:49:27.010Z,0.40
2022-09-24T12:51:56.645Z,0.50
2022-09-24T12:54:26.721Z,1.00
2022-09-24T12:57:25.924Z,0.82
2022-09-24T12:59:56.956Z,0.35
2022-09-24T13:02:43.809Z,0.35
2022-09-24T13:05:28.729Z,0.43
2022-09-24T13:08:25.305Z,0.65
2022-09-24T13:10:57.015Z,0.75
2022-09-24T13:13:27.362Z,0.25
2022-09-24T13:16:04.289Z,0.30
2022-09-24T13:18:34.749Z,0.70
2022-09-24T13:21:07.590Z,0.38
2022-09-24T13:23:37.861Z,0.68
2022-09-24T13:26:13.534Z,0.95
2022-09-24T13:28:48.320Z,0.35
2022-09-24T13:31:21.820Z,0.60
2022-09-24T13:33:55.075Z,0.70
2022-09-24T13:36:37.141Z,0.50
2022-09-24T13:39:24.567Z,0.70
2022-09-24T13:44:49.124Z,0.30
2022-09-24T13:47:32.404Z,1.13
2022-09-24T13:50:14.389Z,0.10
2022-09-24T13:52:58.741Z,0.63
2022-09-24T13:55:40.083Z,0.55
2022-09-24T13:58:30.669Z,0.30
2022-09-24T14:01:00.305Z,0.40
2022-09-24T14:03:37.034Z,0.30
2022-09-24T14:06:13.127Z,0.32
2022-09-24T14:08:44.536Z,0.85
2022-09-24T14:11:15.977Z,0.30
2022-09-24T14:13:46.053Z,0.47
2022-09-24T14:16:23.023Z,0.70
2022-09-24T14:19:03.225Z,0.30
2022-09-24T14:21:45.574Z,0.43
2022-09-24T14:24:25.484Z,0.50
2022-09-24T14:26:58.470Z,0.60
2022-09-24T14:30:02.437Z,0.40
2022-09-24T14:32:36.721Z,0.30
2022-09-24T14:35:07.983Z,0.63
2022-09-24T14:37:45.943Z,0.35
2022-09-24T14:40:19.327Z,0.60
2022-09-24T14:42:53.708Z,0.75
2022-09-24T14:45:29.636Z,0.80
2022-09-24T14:48:05.211Z,0.60
2022-09-24T14:50:40.839Z,1.00
2022-09-24T14:53:33.013Z,0.40
2022-09-24T14:56:00.827Z,0.50
2022-09-24T15:01:05.838Z,0.75
2022-09-24T15:03:50.190Z,0.65
2022-09-24T15:06:21.771Z,0.75
2022-09-24T15:08:57.433Z,0.70
2022-09-24T15:11:27.891Z,0.52
2022-09-24T15:14:08.675Z,0.80
2022-09-24T15:16:37.064Z,0.40
2022-09-24T15:19:07.548Z,0.40
2022-09-24T15:21:35.151Z,0.52
2022-09-24T15:24:02.854Z,0.73
2022-09-24T15:26:33.283Z,0.47
2022-09-24T15:29:02.074Z,0.40
2022-09-24T15:31:30.117Z,0.98
2022-09-24T15:33:57.395Z,0.30
2022-09-24T15:36:25.016Z,0.95
2022-09-24T15:38:58.159Z,0.35
2022-09-24T15:41:25.421Z,0.88
2022-09-24T15:43:56.614Z,1.20
2022-09-24T15:46:25.574Z,1.17
2022-09-24T15:48:53.203Z,1.00
2022-09-24T15:51:22.423Z,1.25
2022-09-24T15:53:50.682Z,1.73
2022-09-24T15:56:18.096Z,1.55
2022-09-24T15:58:45.312Z,1.33
2022-09-24T16:01:18.998Z,1.52
2022-09-24T16:03:46.287Z,2.10
2022-09-24T16:06:14.213Z,2.17
2022-09-24T16:08:42.596Z,0.85
2022-09-24T16:11:09.877Z,0.30
2022-09-24T16:13:37.883Z,0.30
2022-09-24T16:16:10.164Z,0.65
2022-09-24T16:18:39.812Z,0.63
2022-09-24T16:21:09.962Z,1.08
2022-09-24T16:23:37.508Z,1.25
2022-09-24T16:26:04.916Z,0.90
2022-09-24T16:28:32.336Z,0.60
2022-09-24T16:30:59.543Z,0.90
2022-09-24T16:33:26.838Z,1.63
2022-09-24T16:35:54.019Z,0.57
2022-09-24T16:38:23.028Z,0.85
2022-09-24T16:40:59.822Z,0.82
2022-09-24T16:43:27.394Z,1.00
2022-09-24T16:46:00.365Z,0.80
2022-09-24T16:48:28.245Z,1.40
2022-09-24T16:53:31.170Z,0.60
2022-09-24T16:56:05.632Z,1.27
2022-09-24T16:58:33.715Z,1.17
2022-09-24T17:01:07.837Z,0.95
2022-09-24T17:03:35.339Z,1.13
2022-09-24T17:06:03.849Z,1.45
2022-09-24T17:08:51.462Z,1.35
2022-09-24T17:13:47.566Z,1.25
2022-09-24T17:16:16.095Z,0.80
2022-09-24T17:18:46.051Z,1.25
2022-09-24T17:21:15.108Z,1.27
2022-09-24T17:23:42.540Z,0.88
2022-09-24T17:26:17.932Z,1.48
2022-09-24T17:28:46.824Z,0.82
2022-09-24T17:31:16.795Z,2.13
2022-09-24T17:33:44.979Z,1.95
2022-09-24T17:36:15.330Z,1.52
2022-09-24T17:38:43.158Z,1.27
2022-09-24T17:41:13.087Z,2.60
2022-09-24T17:43:41.634Z,1.30
2022-09-24T17:46:14.976Z,1.80
2022-09-24T17:48:45.045Z,1.45
2022-09-24T17:51:20.850Z,1.80
2022-09-24T17:53:48.376Z,1.30
2022-09-24T17:56:16.872Z,2.60
2022-09-24T17:58:49.586Z,1.35
2022-09-24T18:01:21.231Z,1.80
2022-09-24T18:03:53.203Z,2.92
2022-09-24T18:06:21.067Z,1.15
2022-09-24T18:11:17.431Z,2.22
2022-09-24T18:13:46.057Z,2.08
2022-09-24T18:16:17.521Z,1.55
2022-09-24T18:18:45.318Z,2.35
2022-09-24T18:21:13.639Z,2.70
2022-09-24T18:23:42.037Z,2.60
2022-09-24T18:26:18.148Z,1.77
2022-09-24T18:28:49.866Z,3.05
2022-09-24T18:31:23.054Z,2.15
2022-09-24T18:33:52.377Z,2.05
2022-09-24T18:36:23.079Z,1.85
2022-09-24T18:38:50.375Z,1.23
2022-09-24T18:41:23.974Z,3.00
2022-09-24T18:43:52.399Z,1.10
2022-09-24T18:46:21.162Z,1.75
2022-09-24T18:48:50.924Z,1.77
2022-09-24T18:51:29.552Z,2.55
2022-09-24T18:53:59.757Z,3.03
2022-09-24T18:56:27.683Z,2.92
2022-09-24T19:01:23.558Z,2.28
2022-09-24T19:06:18.327Z,2.10
2022-09-24T19:08:46.141Z,2.55
2022-09-24T19:11:17.033Z,1.80
2022-09-24T19:13:49.586Z,2.05
2022-09-24T19:16:18.297Z,2.28
2022-09-24T19:18:46.682Z,2.33
2022-09-24T19:21:15.983Z,2.67
2022-09-24T19:23:46.296Z,2.38
2022-09-24T19:26:18.632Z,1.95
2022-09-24T19:28:47.684Z,2.25
2022-09-24T19:31:20.332Z,3.25
2022-09-24T19:33:50.238Z,2.35
2022-09-24T19:36:17.969Z,2.80
2022-09-24T19:38:45.480Z,2.67
2022-09-24T19:41:21.302Z,1.98
2022-09-24T19:43:52.139Z,3.35
2022-09-24T19:46:23.799Z,2.38
2022-09-24T19:48:54.039Z,2.45
2022-09-24T19:51:29.518Z,3.20
2022-09-24T19:53:58.972Z,2.67
2022-09-24T19:56:26.747Z,2.28
2022-09-24T19:58:56.362Z,2.10
2022-09-24T20:01:28.224Z,3.47
2022-09-24T20:03:57.131Z,3.05
2022-09-24T20:06:31.258Z,2.75
2022-09-24T20:08:59.474Z,2.45
2022-09-24T20:11:34.852Z,3.13
2022-09-24T20:14:05.905Z,2.58
2022-09-24T20:16:33.660Z,2.42
2022-09-24T20:19:02.581Z,2.53
2022-09-24T20:21:34.492Z,2.33
2022-09-24T20:24:04.730Z,1.80
2022-09-24T20:26:51.511Z,2.10
2022-09-24T20:29:20.049Z,2.57
2022-09-24T20:31:53.297Z,2.28
2022-09-24T20:34:33.862Z,1.85
2022-09-24T20:37:02.613Z,2.58
2022-09-24T20:39:30.931Z,2.40
2022-09-24T20:42:05.949Z,3.72
2022-09-24T20:44:34.053Z,2.72
2022-09-24T20:49:29.833Z,2.08
2022-09-24T20:51:58.104Z,1.67
2022-09-24T20:54:27.001Z,2.15
2022-09-24T20:56:54.756Z,3.55
2022-09-24T20:59:23.588Z,2.78
2022-09-24T21:01:51.032Z,3.22
2022-09-24T21:04:20.183Z,1.63
2022-09-24T21:06:48.434Z,1.58
2022-09-24T21:09:17.419Z,1.95
2022-09-24T21:11:44.891Z,2.50
2022-09-24T21:14:12.393Z,2.00
2022-09-24T21:16:39.531Z,1.77
2022-09-24T21:19:07.979Z,2.77
2022-09-24T21:21:39.039Z,3.03
2022-09-24T21:24:09.539Z,2.42
2022-09-24T21:26:38.421Z,1.48
2022-09-24T21:29:09.652Z,2.42
2022-09-24T21:31:38.707Z,2.65
2022-09-24T21:34:07.652Z,1.38
2022-09-24T21:36:44.533Z,2.38
2022-09-24T21:39:23.355Z,2.90
2022-09-24T21:41:53.116Z,1.33
2022-09-24T21:44:21.481Z,2.20
2022-09-24T21:46:51.047Z,2.80
2022-09-24T21:49:19.459Z,4.07
2022-09-24T21:51:47.089Z,2.05
2022-09-24T21:54:17.647Z,1.60
2022-09-24T22:01:05.083Z,1.75
2022-09-24T22:03:32.841Z,2.47
2022-09-24T22:06:03.382Z,3.40
2022-09-24T22:08:32.043Z,2.63
2022-09-24T22:11:10.563Z,2.08
2022-09-24T22:13:38.951Z,2.22
2022-09-24T22:16:08.411Z,2.08
2022-09-24T22:18:37.113Z,1.90
2022-09-24T22:21:10.377Z,3.22
2022-09-24T22:23:37.901Z,1.75
2022-09-24T22:26:06.515Z,2.05
2022-09-24T22:28:34.585Z,2.03
2022-09-24T22:31:06.035Z,2.53
2022-09-24T22:33:52.405Z,1.73
2022-09-24T22:36:20.209Z,1.35
2022-09-24T22:38:49.445Z,2.08
2022-09-24T22:41:16.861Z,1.38
2022-09-24T22:43:44.568Z,2.40
2022-09-24T22:46:13.400Z,2.42
2022-09-24T22:48:40.667Z,2.08
2022-09-24T22:51:09.324Z,1.65
2022-09-24T22:53:38.660Z,1.92
2022-09-24T22:56:14.368Z,2.75
2022-09-24T22:58:44.815Z,1.65
2022-09-24T23:01:17.057Z,2.17
2022-09-24T23:03:44.953Z,3.58
2022-09-24T23:06:12.425Z,1.23
2022-09-24T23:08:41.217Z,1.90
2022-09-24T23:11:09.501Z,1.88
2022-09-24T23:13:38.236Z,3.03
2022-09-24T23:16:13.103Z,2.22
2022-09-24T23:18:42.270Z,2.70
2022-09-24T23:21:12.364Z,2.22
2022-09-24T23:23:40.036Z,2.10
2022-09-24T23:26:16.243Z,1.27
2022-09-24T23:28:46.119Z,1.80
2022-09-24T23:31:14.859Z,1.33
2022-09-24T23:33:42.428Z,1.00
2022-09-24T23:36:11.930Z,2.03
2022-09-24T23:38:39.569Z,1.40
2022-09-24T23:41:08.232Z,1.58
2022-09-24T23:43:36.200Z,1.83
2022-09-24T23:48:31.598Z,2.72
2022-09-24T23:50:58.803Z,1.55
2022-09-24T23:53:26.641Z,0.68
2022-09-24T23:55:55.351Z,1.80
2022-09-24T23:58:23.923Z,1.33
